Time;durP1;ratioP1;P1;durP2;ratioP2;P2;SDS_P1;SDS_P2;PMS_P1;PMS_P2;Temp;Humidity;BMP_temperature;BMP_pressure;BME280_temperature;BME280_humidity;BME280_pressure;Samples;Min_cycle;Max_cycle;Signal;HPM_P1;HPM_P2
2022/09/14 00:01:45;;;;;;;7.63;5.80;;;17.30;99.90;;;;;;4180939;28;20857;-76
2022/09/14 00:03:52;;;;;;;6.77;5.17;;;17.20;99.90;;;;;;4184647;28;20679;-76
2022/09/14 00:05:54;;;;;;;6.57;5.10;;;17.30;99.90;;;;;;4185926;28;20278;-75
2022/09/14 00:07:56;;;;;;;6.80;5.40;;;17.30;99.90;;;;;;4183587;28;20202;-75
2022/09/14 00:09:58;;;;;;;7.27;5.60;;;17.20;99.90;;;;;;4188157;28;20247;-75
2022/09/14 00:12:00;;;;;;;6.60;5.10;;;17.20;99.90;;;;;;4188533;28;20305;-77
2022/09/14 00:14:03;;;;;;;6.20;4.97;;;17.20;99.90;;;;;;4185242;28;20202;-75
2022/09/14 00:16:06;;;;;;;6.83;5.00;;;17.20;99.90;;;;;;4186356;28;20831;-76
2022/09/14 00:18:10;;;;;;;7.27;4.93;;;17.10;99.90;;;;;;4182084;28;20255;-75
2022/09/14 00:20:14;;;;;;;6.73;5.17;;;17.10;99.90;;;;;;4179027;28;20230;-75
2022/09/14 00:22:15;;;;;;;6.23;4.90;;;17.10;99.90;;;;;;4184321;28;20293;-75
2022/09/14 00:24:18;;;;;;;6.80;4.73;;;17.10;99.90;;;;;;4184188;28;20280;-76
2022/09/14 00:26:21;;;;;;;8.10;4.73;;;17.10;99.90;;;;;;4191504;28;20210;-75
2022/09/14 00:28:23;;;;;;;6.50;4.87;;;17.10;99.90;;;;;;4189462;28;20293;-75
2022/09/14 00:30:26;;;;;;;6.40;4.80;;;17.10;99.90;;;;;;4191520;28;20309;-76
2022/09/14 00:32:28;;;;;;;5.70;4.63;;;17.10;99.90;;;;;;4178657;28;20301;-75
2022/09/14 00:34:30;;;;;;;5.67;4.50;;;17.10;99.90;;;;;;4186010;28;20711;-75
2022/09/14 00:36:38;;;;;;;5.27;4.30;;;17.10;99.90;;;;;;4183872;28;20257;-76
2022/09/14 00:38:41;;;;;;;5.60;4.37;;;17.10;99.90;;;;;;4192617;28;20304;-76
2022/09/14 00:40:42;;;;;;;5.80;4.40;;;17.10;99.90;;;;;;4185120;28;20320;-76
2022/09/14 00:42:44;;;;;;;6.33;4.57;;;17.10;99.90;;;;;;4189696;28;20217;-76
2022/09/14 00:45:00;;;;;;;4.93;4.10;;;17.10;99.90;;;;;;4186936;28;20321;-76
2022/09/14 00:47:03;;;;;;;5.90;4.47;;;17.10;99.90;;;;;;4180091;28;20242;-76
2022/09/14 00:49:07;;;;;;;5.30;4.17;;;17.10;99.90;;;;;;4184245;28;20703;-76
2022/09/14 00:51:09;;;;;;;5.10;3.87;;;17.10;99.90;;;;;;4187713;28;20229;-75
2022/09/14 00:53:13;;;;;;;5.57;4.10;;;17.10;99.90;;;;;;4182749;28;20210;-76
2022/09/14 00:55:17;;;;;;;4.97;4.07;;;17.10;99.90;;;;;;4189070;28;20633;-76
2022/09/14 00:57:20;;;;;;;7.00;4.30;;;17.10;99.90;;;;;;4194586;28;20213;-76
2022/09/14 00:59:27;;;;;;;5.33;4.03;;;17.10;99.90;;;;;;4185569;28;20653;-76
2022/09/14 01:01:29;;;;;;;4.57;3.43;;;17.10;99.90;;;;;;4184321;28;20249;-75
2022/09/14 01:03:31;;;;;;;5.53;4.13;;;17.10;99.90;;;;;;4184993;28;20222;-76
2022/09/14 01:05:47;;;;;;;5.43;4.00;;;17.10;99.90;;;;;;4220183;28;20209;-76
2022/09/14 01:08:09;;;;;;;4.30;3.67;;;17.10;99.90;;;;;;4179941;28;20703;-75
2022/09/14 01:10:25;;;;;;;4.90;3.77;;;17.10;99.90;;;;;;4182510;28;20229;-76
2022/09/14 01:12:35;;;;;;;5.20;4.10;;;17.10;99.90;;;;;;4183582;28;20206;-76
2022/09/14 01:14:45;;;;;;;6.73;5.07;;;17.10;99.90;;;;;;4186941;28;20256;-76
2022/09/14 01:16:54;;;;;;;8.03;5.87;;;17.00;99.90;;;;;;4187220;28;20218;-77
2022/09/14 01:18:59;;;;;;;7.87;5.50;;;17.10;99.90;;;;;;4179180;28;20217;-76
2022/09/14 01:21:05;;;;;;;7.27;5.10;;;17.10;99.90;;;;;;4183653;28;20221;-75
2022/09/14 01:23:13;;;;;;;6.57;4.93;;;17.00;99.90;;;;;;4186764;28;20583;-75
2022/09/14 01:25:31;;;;;;;7.03;5.17;;;17.10;99.90;;;;;;4185783;28;20210;-76
2022/09/14 01:27:40;;;;;;;6.23;4.93;;;17.10;99.90;;;;;;4184772;28;20224;-75
2022/09/14 01:29:47;;;;;;;6.77;4.63;;;17.10;99.90;;;;;;4185176;28;20304;-76
2022/09/14 01:31:54;;;;;;;4.87;4.13;;;17.10;99.90;;;;;;4188360;28;20205;-76
2022/09/14 01:34:05;;;;;;;5.43;3.77;;;17.10;99.90;;;;;;4186425;28;20245;-75
2022/09/14 01:36:10;;;;;;;4.50;3.50;;;17.00;99.90;;;;;;4184573;28;20256;-76
2022/09/14 01:38:19;;;;;;;5.87;3.70;;;17.10;99.90;;;;;;4186478;28;20244;-76
2022/09/14 01:40:26;;;;;;;4.60;3.47;;;17.10;99.90;;;;;;4177221;28;20668;-75
2022/09/14 01:42:30;;;;;;;4.77;3.70;;;17.10;99.90;;;;;;4190745;28;20272;-75
2022/09/14 01:44:38;;;;;;;4.03;3.00;;;17.00;99.90;;;;;;4186869;28;20228;-76
2022/09/14 01:46:46;;;;;;;4.93;3.73;;;17.00;99.90;;;;;;4187275;28;20202;-75
2022/09/14 01:48:53;;;;;;;4.33;3.00;;;17.10;99.90;;;;;;4188586;28;20207;-76
2022/09/14 01:50:58;;;;;;;3.97;3.20;;;17.10;99.90;;;;;;4177262;28;20313;-75
2022/09/14 01:53:07;;;;;;;4.03;3.27;;;17.00;99.90;;;;;;4181103;28;20212;-76
2022/09/14 01:55:13;;;;;;;4.77;3.30;;;17.00;99.90;;;;;;4184242;28;20240;-76
2022/09/14 01:57:21;;;;;;;4.17;3.20;;;17.00;99.90;;;;;;4179711;28;20225;-76
2022/09/14 01:59:25;;;;;;;4.10;2.80;;;17.00;99.90;;;;;;4183896;28;20206;-75
2022/09/14 02:01:33;;;;;;;3.97;3.03;;;17.00;99.90;;;;;;4186148;28;20313;-75
2022/09/14 02:03:41;;;;;;;4.33;3.23;;;17.00;99.90;;;;;;4179182;28;20237;-76
2022/09/14 02:05:50;;;;;;;4.70;3.33;;;17.00;99.90;;;;;;4180025;28;20231;-77
2022/09/14 02:07:52;;;;;;;3.77;3.23;;;17.00;99.90;;;;;;4178491;28;20213;-76
2022/09/14 02:09:55;;;;;;;4.57;3.30;;;17.00;99.90;;;;;;4185423;28;20584;-76
2022/09/14 02:11:59;;;;;;;3.73;2.97;;;17.00;99.90;;;;;;4185793;28;20233;-77
2022/09/14 02:14:01;;;;;;;4.00;3.40;;;17.00;99.90;;;;;;4187834;28;20233;-76
2022/09/14 02:16:03;;;;;;;4.53;3.33;;;17.00;99.90;;;;;;4188024;28;20292;-76
2022/09/14 02:18:07;;;;;;;3.93;3.07;;;17.00;99.90;;;;;;4185638;28;20257;-76
2022/09/14 02:20:15;;;;;;;4.13;2.90;;;17.00;99.90;;;;;;4184864;28;20226;-77
2022/09/14 02:22:17;;;;;;;3.40;2.70;;;17.00;99.90;;;;;;4186885;28;20209;-76
2022/09/14 02:24:19;;;;;;;3.23;2.90;;;17.00;99.90;;;;;;4189045;28;20370;-77
2022/09/14 02:26:22;;;;;;;3.80;3.37;;;17.00;99.90;;;;;;4180159;28;20206;-77
2022/09/14 02:28:24;;;;;;;3.97;2.93;;;17.00;99.90;;;;;;4182337;28;20238;-76
2022/09/14 02:30:28;;;;;;;3.47;2.87;;;16.90;99.90;;;;;;4181002;28;20253;-76
2022/09/14 02:32:35;;;;;;;5.47;3.27;;;16.90;99.90;;;;;;4183505;28;20291;-76
2022/09/14 02:34:51;;;;;;;3.00;2.53;;;16.90;99.90;;;;;;4187346;28;20199;-77
2022/09/14 02:36:59;;;;;;;3.67;3.03;;;16.90;99.90;;;;;;4182295;28;20293;-76
2022/09/14 02:39:07;;;;;;;3.60;2.57;;;16.90;99.90;;;;;;4186887;28;20300;-77
2022/09/14 02:41:16;;;;;;;2.80;2.33;;;16.90;99.90;;;;;;4182482;28;20693;-77
2022/09/14 02:43:28;;;;;;;4.30;2.73;;;16.90;99.90;;;;;;4190210;28;20640;-76
2022/09/14 02:45:38;;;;;;;3.57;2.63;;;16.90;99.90;;;;;;4190480;28;20293;-76
2022/09/14 02:47:54;;;;;;;4.63;2.70;;;16.90;99.90;;;;;;4179828;28;20912;-76
2022/09/14 02:50:03;;;;;;;2.53;2.30;;;16.90;99.90;;;;;;4189695;28;20610;-77
2022/09/14 02:52:13;;;;;;;3.40;2.40;;;16.90;99.90;;;;;;4189020;28;20201;-76
2022/09/14 02:54:17;;;;;;;2.97;2.10;;;16.90;99.90;;;;;;4186546;28;20232;-76
2022/09/14 02:56:19;;;;;;;3.30;2.63;;;16.80;99.90;;;;;;4189354;28;20628;-76
2022/09/14 02:58:21;;;;;;;2.40;2.20;;;16.80;99.90;;;;;;4190038;28;20208;-77
2022/09/14 03:00:23;;;;;;;3.50;2.73;;;16.80;99.90;;;;;;4187830;28;20229;-76
2022/09/14 03:02:25;;;;;;;2.63;2.37;;;16.80;99.90;;;;;;4192597;28;20240;-76
2022/09/14 03:04:28;;;;;;;2.73;2.20;;;16.80;99.90;;;;;;4190034;28;20261;-76
2022/09/14 03:06:31;;;;;;;3.43;2.17;;;16.80;99.90;;;;;;4183783;28;20296;-76
2022/09/14 03:08:33;;;;;;;3.20;2.33;;;16.80;99.90;;;;;;4197362;28;20268;-76
2022/09/14 03:10:36;;;;;;;2.83;2.10;;;16.80;99.90;;;;;;4184689;28;20280;-76
2022/09/14 03:12:38;;;;;;;3.37;2.43;;;16.80;99.90;;;;;;4184452;28;20555;-76
2022/09/14 03:14:40;;;;;;;3.60;2.30;;;16.80;99.90;;;;;;4185661;28;20207;-76
2022/09/14 03:16:42;;;;;;;3.67;2.50;;;16.80;99.90;;;;;;4218794;28;20659;-76
2022/09/14 03:18:44;;;;;;;3.10;2.47;;;16.80;99.90;;;;;;4187244;28;20253;-76
2022/09/14 03:20:46;;;;;;;2.97;2.40;;;16.80;99.90;;;;;;4190011;28;20313;-76
2022/09/14 03:22:49;;;;;;;2.70;2.33;;;16.80;99.90;;;;;;4191626;28;20214;-78
2022/09/14 03:24:51;;;;;;;3.23;2.50;;;16.80;99.90;;;;;;4180910;28;20238;-76
2022/09/14 03:26:53;;;;;;;2.70;2.17;;;16.80;99.90;;;;;;4192355;28;20582;-76
2022/09/14 03:28:58;;;;;;;4.33;2.47;;;16.80;99.90;;;;;;4192577;28;20201;-77
2022/09/14 03:31:00;;;;;;;2.80;2.27;;;16.80;99.90;;;;;;4185135;28;20229;-76
2022/09/14 03:33:03;;;;;;;2.93;2.10;;;16.80;99.90;;;;;;4188807;28;20611;-76
2022/09/14 03:35:06;;;;;;;2.50;1.87;;;16.80;99.90;;;;;;4185318;28;20571;-76
2022/09/14 03:37:08;;;;;;;2.30;2.03;;;16.80;99.90;;;;;;4186718;28;20202;-76
2022/09/14 03:39:11;;;;;;;2.57;2.00;;;16.70;99.90;;;;;;4184936;28;20218;-76
2022/09/14 03:41:14;;;;;;;2.70;2.07;;;16.70;99.90;;;;;;4183048;28;20231;-76
2022/09/14 03:43:16;;;;;;;2.50;2.00;;;16.70;99.90;;;;;;4184119;28;20676;-76
2022/09/14 03:45:19;;;;;;;2.60;1.67;;;16.70;99.90;;;;;;4184366;28;20257;-76
2022/09/14 03:47:23;;;;;;;2.07;1.77;;;16.70;99.90;;;;;;4187793;28;20259;-76
2022/09/14 03:49:25;;;;;;;3.40;1.90;;;16.70;99.90;;;;;;4184980;28;20288;-76
2022/09/14 03:51:27;;;;;;;3.13;1.87;;;16.70;99.90;;;;;;4181324;28;20254;-77
2022/09/14 03:53:29;;;;;;;2.00;1.70;;;16.70;99.90;;;;;;4184840;28;20244;-77
2022/09/14 03:55:32;;;;;;;2.07;1.73;;;16.70;99.90;;;;;;4193074;28;20277;-76
2022/09/14 03:57:34;;;;;;;2.00;1.57;;;16.70;99.90;;;;;;4183952;28;20874;-77
2022/09/14 03:59:36;;;;;;;1.70;1.57;;;16.70;99.90;;;;;;4186759;28;20656;-77
2022/09/14 04:01:38;;;;;;;2.30;1.77;;;16.70;99.90;;;;;;4192771;28;20319;-78
2022/09/14 04:03:40;;;;;;;2.80;1.80;;;16.60;99.90;;;;;;4225757;28;20212;-77
2022/09/14 04:05:44;;;;;;;2.43;1.67;;;16.60;99.90;;;;;;4186151;28;20305;-76
2022/09/14 04:07:45;;;;;;;2.13;1.80;;;16.60;99.90;;;;;;4191453;28;20202;-76
2022/09/14 04:09:47;;;;;;;3.27;1.70;;;16.60;99.90;;;;;;4188849;28;20651;-76
2022/09/14 04:11:50;;;;;;;2.23;1.37;;;16.60;99.90;;;;;;4189254;28;20230;-77
2022/09/14 04:13:53;;;;;;;1.83;1.70;;;16.60;99.90;;;;;;4184157;28;20646;-77
2022/09/14 04:15:59;;;;;;;2.00;1.60;;;16.60;99.90;;;;;;4188044;28;20202;-77
2022/09/14 04:18:01;;;;;;;1.97;1.60;;;16.60;99.90;;;;;;4192259;28;20229;-76
2022/09/14 04:20:03;;;;;;;2.10;1.80;;;16.60;99.90;;;;;;4182654;28;20717;-76
2022/09/14 04:22:05;;;;;;;1.70;1.47;;;16.60;99.90;;;;;;4191165;28;20214;-76
2022/09/14 04:24:09;;;;;;;1.93;1.67;;;16.60;99.90;;;;;;4183645;28;20209;-76
2022/09/14 04:26:12;;;;;;;2.10;1.50;;;16.60;99.90;;;;;;4182953;28;20719;-78
2022/09/14 04:28:15;;;;;;;2.00;1.70;;;16.50;99.90;;;;;;4186302;28;20695;-76
2022/09/14 04:30:17;;;;;;;1.90;1.70;;;16.50;99.90;;;;;;4183913;28;20229;-76
2022/09/14 04:32:19;;;;;;;2.03;1.70;;;16.50;99.90;;;;;;4190782;28;20201;-75
2022/09/14 04:34:21;;;;;;;2.57;1.70;;;16.50;99.90;;;;;;4180895;28;20210;-75
2022/09/14 04:36:26;;;;;;;2.17;1.90;;;16.50;99.90;;;;;;4182383;28;20234;-75
2022/09/14 04:38:29;;;;;;;1.90;1.60;;;16.50;99.90;;;;;;4196522;28;20205;-75
2022/09/14 04:40:31;;;;;;;2.37;1.67;;;16.50;99.90;;;;;;4183078;28;20610;-75
2022/09/14 04:42:33;;;;;;;2.37;1.80;;;16.50;99.90;;;;;;4180555;28;20206;-76
2022/09/14 04:44:36;;;;;;;1.60;1.50;;;16.50;99.90;;;;;;4190040;28;20214;-75
2022/09/14 04:46:40;;;;;;;1.90;1.50;;;16.50;99.90;;;;;;4184508;28;20285;-76
2022/09/14 04:48:42;;;;;;;1.97;1.60;;;16.50;99.90;;;;;;4181980;28;20213;-78
2022/09/14 04:50:44;;;;;;;2.23;1.60;;;16.50;99.90;;;;;;4177652;28;20593;-75
2022/09/14 04:52:46;;;;;;;2.00;1.50;;;16.50;99.90;;;;;;4187543;28;20695;-75
2022/09/14 04:54:48;;;;;;;1.57;1.40;;;16.50;99.90;;;;;;4184676;28;20285;-75
2022/09/14 04:56:50;;;;;;;2.00;1.43;;;16.50;99.90;;;;;;4188494;28;20268;-76
2022/09/14 04:58:54;;;;;;;1.63;1.40;;;16.50;99.90;;;;;;4188395;28;20225;-77
2022/09/14 05:01:01;;;;;;;2.13;1.77;;;16.50;99.90;;;;;;4191147;28;20735;-75
2022/09/14 05:03:04;;;;;;;3.27;1.50;;;16.40;99.90;;;;;;4183999;28;20574;-76
2022/09/14 05:05:06;;;;;;;1.93;1.50;;;16.50;99.90;;;;;;4191902;28;20251;-75
2022/09/14 05:07:08;;;;;;;1.60;1.40;;;16.40;99.90;;;;;;4189881;28;20233;-75
2022/09/14 05:09:13;;;;;;;1.53;1.30;;;16.40;99.90;;;;;;4187045;28;20280;-75
2022/09/14 05:11:17;;;;;;;2.40;1.57;;;16.40;99.90;;;;;;4186788;28;20634;-76
2022/09/14 05:13:19;;;;;;;2.87;1.60;;;16.40;99.90;;;;;;4184433;28;20237;-76
2022/09/14 05:15:21;;;;;;;1.80;1.40;;;16.40;99.90;;;;;;4189201;28;20198;-81
2022/09/14 05:17:24;;;;;;;2.73;1.57;;;16.40;99.90;;;;;;4186137;28;20336;-79
2022/09/14 05:19:26;;;;;;;1.63;1.50;;;16.50;99.90;;;;;;4188019;28;20211;-77
2022/09/14 05:21:29;;;;;;;1.60;1.47;;;16.50;99.90;;;;;;4191544;28;20230;-78
2022/09/14 05:23:31;;;;;;;1.63;1.40;;;16.50;99.90;;;;;;4180435;28;20214;-78
2022/09/14 05:25:33;;;;;;;3.43;1.37;;;16.50;99.90;;;;;;4181437;28;20228;-79
2022/09/14 05:27:35;;;;;;;2.33;1.70;;;16.50;99.90;;;;;;4187519;28;20217;-79
2022/09/14 05:29:39;;;;;;;1.87;1.43;;;16.60;99.90;;;;;;4181676;28;20855;-79
2022/09/14 05:31:41;;;;;;;2.50;1.60;;;16.70;99.90;;;;;;4188990;28;20201;-78
2022/09/14 05:33:44;;;;;;;2.40;1.57;;;16.60;99.90;;;;;;4188498;28;20722;-79
2022/09/14 05:35:46;;;;;;;1.63;1.53;;;16.70;99.90;;;;;;4182141;28;20248;-78
2022/09/14 05:37:48;;;;;;;3.03;1.57;;;16.70;99.90;;;;;;4181780;28;20210;-82
2022/09/14 05:39:50;;;;;;;2.63;1.60;;;16.70;99.90;;;;;;4180541;28;20571;-79
2022/09/14 05:41:52;;;;;;;2.70;1.67;;;16.80;99.90;;;;;;4180349;28;20209;-79
2022/09/14 05:43:54;;;;;;;2.50;1.53;;;16.80;99.90;;;;;;4181793;28;20656;-78
2022/09/14 05:46:16;;;;;;;2.30;1.60;;;16.80;99.90;;;;;;4183776;28;20724;-79
2022/09/14 05:48:38;;;;;;;1.97;1.53;;;16.80;99.90;;;;;;4183320;28;20219;-78
2022/09/14 05:51:06;;;;;;;2.77;1.67;;;16.90;99.90;;;;;;4196225;28;20220;-79
2022/09/14 05:53:07;;;;;;;2.57;1.87;;;16.90;99.90;;;;;;4196466;28;20285;-79
2022/09/14 05:55:09;;;;;;;2.00;1.47;;;16.90;99.90;;;;;;4208930;28;20236;-79
2022/09/14 05:57:11;;;;;;;1.57;1.43;;;16.90;99.90;;;;;;4194787;28;20221;-79
2022/09/14 05:59:13;;;;;;;3.20;1.50;;;17.10;99.90;;;;;;4207165;28;20764;-79
2022/09/14 06:01:18;;;;;;;2.53;1.37;;;17.00;99.90;;;;;;4204826;28;20927;-79
2022/09/14 06:03:20;;;;;;;2.07;1.33;;;17.00;99.90;;;;;;4211412;28;20271;-79
2022/09/14 06:05:24;;;;;;;2.03;1.50;;;17.10;99.90;;;;;;4211848;28;20261;-78
2022/09/14 06:07:27;;;;;;;2.17;1.40;;;17.10;99.90;;;;;;4226182;28;20231;-79
2022/09/14 06:09:29;;;;;;;3.03;1.40;;;17.10;99.90;;;;;;4218570;28;20542;-78
2022/09/14 06:11:35;;;;;;;2.60;1.50;;;17.10;99.90;;;;;;4211202;28;20211;-79
2022/09/14 06:13:37;;;;;;;2.83;1.70;;;17.10;99.90;;;;;;4207187;28;20215;-78
2022/09/14 06:15:39;;;;;;;1.73;1.13;;;17.10;99.90;;;;;;4224980;28;20281;-78
2022/09/14 06:17:40;;;;;;;1.90;1.30;;;17.10;99.90;;;;;;4208817;28;20240;-79
2022/09/14 06:19:42;;;;;;;2.33;1.47;;;17.10;99.90;;;;;;4223717;28;20269;-78
2022/09/14 06:21:44;;;;;;;3.00;1.30;;;17.10;99.90;;;;;;4231703;28;20403;-78
2022/09/14 06:23:48;;;;;;;2.97;1.33;;;17.10;99.90;;;;;;4213381;28;20761;-78
2022/09/14 06:25:53;;;;;;;2.63;1.60;;;17.20;99.90;;;;;;4229255;28;20705;-78
2022/09/14 06:27:55;;;;;;;4.83;1.40;;;17.20;99.90;;;;;;4212989;28;20234;-79
2022/09/14 06:29:57;;;;;;;3.43;1.57;;;17.20;99.90;;;;;;4212619;28;20263;-79
2022/09/14 06:31:59;;;;;;;2.33;1.40;;;17.40;99.90;;;;;;4232354;28;20235;-78
2022/09/14 06:34:02;;;;;;;2.83;1.50;;;17.20;99.90;;;;;;4214680;28;20209;-79
2022/09/14 06:36:08;;;;;;;1.40;1.20;;;17.20;99.90;;;;;;4225700;28;20265;-79
2022/09/14 06:38:10;;;;;;;1.97;1.30;;;17.20;99.90;;;;;;4224647;28;20200;-76
2022/09/14 06:40:13;;;;;;;2.20;1.47;;;17.40;99.90;;;;;;4205218;28;20233;-76
2022/09/14 06:42:15;;;;;;;2.57;1.40;;;17.20;99.90;;;;;;4219376;28;20193;-76
2022/09/14 06:44:17;;;;;;;1.87;1.40;;;17.20;99.90;;;;;;4227287;28;20267;-76
2022/09/14 06:46:22;;;;;;;1.60;1.30;;;17.20;99.90;;;;;;4239558;27;20216;-77
2022/09/14 06:48:24;;;;;;;2.43;1.33;;;17.20;99.90;;;;;;4220358;28;20209;-77
2022/09/14 06:50:26;;;;;;;3.57;1.50;;;17.20;99.90;;;;;;4195987;28;20236;-76
2022/09/14 06:52:28;;;;;;;2.20;1.20;;;17.20;99.90;;;;;;4215463;28;20324;-76
2022/09/14 06:54:30;;;;;;;3.50;1.70;;;17.20;99.90;;;;;;4225199;28;20236;-76
2022/09/14 06:56:35;;;;;;;2.67;1.60;;;17.20;99.90;;;;;;4201546;28;20236;-76
2022/09/14 06:58:37;;;;;;;1.93;1.50;;;17.20;99.90;;;;;;4219968;28;20223;-77
2022/09/14 07:00:39;;;;;;;2.30;1.40;;;17.20;99.90;;;;;;4222194;28;20755;-76
2022/09/14 07:02:40;;;;;;;2.77;1.43;;;17.30;99.90;;;;;;4222089;28;20300;-76
2022/09/14 07:04:42;;;;;;;3.43;1.73;;;17.20;99.90;;;;;;4208683;28;20206;-76
2022/09/14 07:06:46;;;;;;;3.63;1.70;;;17.30;99.90;;;;;;4228087;28;20229;-76
2022/09/14 07:08:49;;;;;;;2.13;1.73;;;17.20;99.90;;;;;;4215737;28;20213;-76
2022/09/14 07:10:57;;;;;;;3.90;2.20;;;17.20;99.90;;;;;;4226801;28;20228;-76
2022/09/14 07:13:00;;;;;;;3.57;1.80;;;17.20;99.90;;;;;;4222376;28;20200;-76
2022/09/14 07:15:03;;;;;;;2.23;1.70;;;17.20;99.90;;;;;;4219553;28;20645;-76
2022/09/14 07:17:08;;;;;;;3.27;2.10;;;17.20;99.90;;;;;;4201590;28;20692;-76
2022/09/14 07:19:12;;;;;;;3.23;2.00;;;17.20;99.90;;;;;;4222173;28;20732;-76
2022/09/14 07:21:17;;;;;;;3.63;2.23;;;17.20;99.90;;;;;;4203321;28;20237;-76
2022/09/14 07:23:19;;;;;;;3.13;2.00;;;17.20;99.90;;;;;;4223507;28;20646;-76
2022/09/14 07:25:21;;;;;;;3.10;2.17;;;17.30;99.90;;;;;;4220354;28;20287;-76
2022/09/14 07:27:22;;;;;;;2.10;1.90;;;17.20;99.90;;;;;;4195668;28;20222;-76
2022/09/14 07:29:26;;;;;;;3.47;2.00;;;17.30;99.90;;;;;;4222838;28;20209;-75
2022/09/14 07:31:30;;;;;;;2.23;1.90;;;17.30;99.90;;;;;;4205386;28;20780;-76
2022/09/14 07:33:32;;;;;;;3.10;1.90;;;17.30;99.90;;;;;;4219988;28;20258;-76
2022/09/14 07:35:34;;;;;;;4.03;2.10;;;17.30;99.90;;;;;;4222952;28;20209;-76
2022/09/14 07:37:36;;;;;;;2.47;1.90;;;17.30;99.90;;;;;;4199710;28;20567;-76
2022/09/14 07:39:38;;;;;;;2.27;1.90;;;17.30;99.90;;;;;;4216130;28;20742;-77
2022/09/14 07:41:40;;;;;;;2.30;1.80;;;17.30;99.90;;;;;;4216620;28;20655;-79
2022/09/14 07:43:42;;;;;;;2.50;1.40;;;17.30;99.90;;;;;;4206569;28;20358;-76
2022/09/14 07:45:45;;;;;;;1.90;1.50;;;17.40;99.90;;;;;;4222488;28;20200;-76
2022/09/14 07:47:48;;;;;;;2.03;1.30;;;17.40;99.90;;;;;;4222037;28;20212;-76
2022/09/14 07:49:49;;;;;;;2.73;1.67;;;17.40;99.90;;;;;;4222035;28;20205;-76
2022/09/14 07:51:53;;;;;;;2.40;1.50;;;17.40;99.90;;;;;;4216233;28;20212;-77
2022/09/14 07:53:55;;;;;;;2.00;1.40;;;17.40;99.90;;;;;;4202420;28;20301;-77
2022/09/14 07:56:00;;;;;;;3.03;1.50;;;17.50;99.90;;;;;;4224058;28;20289;-77
2022/09/14 07:58:01;;;;;;;2.30;1.23;;;17.50;99.90;;;;;;4217284;28;20215;-77
2022/09/14 08:00:04;;;;;;;1.53;1.13;;;17.50;99.90;;;;;;4217257;28;20224;-77
2022/09/14 08:02:10;;;;;;;1.60;1.50;;;17.50;99.90;;;;;;4216069;28;20232;-77
2022/09/14 08:04:12;;;;;;;1.53;1.10;;;17.50;99.90;;;;;;4216364;28;20547;-77
2022/09/14 08:06:15;;;;;;;1.50;1.10;;;17.50;99.90;;;;;;4218447;28;20222;-76
2022/09/14 08:08:17;;;;;;;2.23;1.30;;;17.50;99.90;;;;;;4218510;28;20205;-77
2022/09/14 08:10:19;;;;;;;6.10;1.30;;;17.50;99.90;;;;;;4199030;28;20235;-77
2022/09/14 08:12:21;;;;;;;3.27;1.40;;;17.50;99.90;;;;;;4218769;28;20207;-77
2022/09/14 08:14:23;;;;;;;1.70;1.43;;;17.50;99.90;;;;;;4222523;28;20212;-77
2022/09/14 08:16:26;;;;;;;3.50;1.67;;;17.60;99.90;;;;;;4218594;28;20710;-77
2022/09/14 08:18:30;;;;;;;2.57;1.40;;;17.50;99.90;;;;;;4220446;28;20210;-77
2022/09/14 08:20:33;;;;;;;2.07;1.43;;;17.60;99.90;;;;;;4197361;28;20313;-77
2022/09/14 08:22:35;;;;;;;2.13;1.40;;;17.60;99.90;;;;;;4217439;28;20288;-77
2022/09/14 08:24:37;;;;;;;2.03;1.37;;;17.60;99.90;;;;;;4216770;28;20214;-77
2022/09/14 08:26:40;;;;;;;2.20;1.40;;;17.60;99.90;;;;;;4224346;28;20780;-77
2022/09/14 08:28:42;;;;;;;2.27;1.50;;;17.60;99.90;;;;;;4218618;28;20253;-77
2022/09/14 08:30:44;;;;;;;2.40;1.50;;;17.70;99.90;;;;;;4217628;28;20236;-77
2022/09/14 08:32:46;;;;;;;3.37;1.50;;;17.70;99.90;;;;;;4201774;28;20609;-77
2022/09/14 08:34:50;;;;;;;1.90;1.50;;;17.70;99.90;;;;;;4215796;28;20281;-77
2022/09/14 08:36:52;;;;;;;2.37;1.60;;;17.70;99.90;;;;;;4217708;28;20245;-77
2022/09/14 08:38:54;;;;;;;2.40;1.63;;;17.70;99.90;;;;;;4215892;28;20293;-77
2022/09/14 08:40:58;;;;;;;3.07;1.47;;;17.80;99.90;;;;;;4215701;28;20231;-78
2022/09/14 08:43:03;;;;;;;3.23;2.10;;;17.70;99.90;;;;;;4196567;28;20294;-77
2022/09/14 08:45:07;;;;;;;2.87;1.57;;;17.70;99.90;;;;;;4213898;28;20242;-77
2022/09/14 08:47:13;;;;;;;2.20;1.70;;;17.70;99.90;;;;;;4217888;28;20314;-78
2022/09/14 08:49:22;;;;;;;3.00;1.60;;;17.70;99.90;;;;;;4215629;28;20902;-78
2022/09/14 08:51:25;;;;;;;2.40;1.80;;;17.70;99.90;;;;;;4194465;28;20243;-78
2022/09/14 08:53:27;;;;;;;2.90;1.60;;;17.80;99.90;;;;;;4215303;28;20832;-78
2022/09/14 08:55:35;;;;;;;2.60;1.70;;;17.80;99.90;;;;;;4220961;28;20213;-77
2022/09/14 08:57:44;;;;;;;1.70;1.43;;;17.80;99.90;;;;;;4221379;28;20255;-78
2022/09/14 08:59:55;;;;;;;3.97;1.77;;;17.80;99.90;;;;;;4217547;28;20200;-78
2022/09/14 09:02:10;;;;;;;2.77;1.60;;;17.80;99.90;;;;;;4210453;28;20205;-78
2022/09/14 09:04:28;;;;;;;2.70;1.60;;;17.90;99.90;;;;;;4196773;28;20349;-77
2022/09/14 09:06:41;;;;;;;2.40;1.50;;;17.90;99.90;;;;;;4216659;28;20194;-77
2022/09/14 09:09:04;;;;;;;1.63;1.50;;;17.90;99.90;;;;;;4218350;28;20203;-78
2022/09/14 09:11:13;;;;;;;2.97;1.63;;;18.00;99.90;;;;;;4219984;28;20384;-77
2022/09/14 09:13:23;;;;;;;2.37;1.50;;;18.00;99.90;;;;;;4201956;28;20277;-78
2022/09/14 09:15:28;;;;;;;3.17;1.40;;;18.00;99.90;;;;;;4218947;28;20624;-77
2022/09/14 09:17:34;;;;;;;1.53;1.23;;;18.10;99.90;;;;;;4220840;28;20215;-76
2022/09/14 09:19:45;;;;;;;2.60;1.30;;;18.10;99.90;;;;;;4222354;28;20197;-77
2022/09/14 09:21:49;;;;;;;2.20;1.33;;;18.10;99.90;;;;;;4220184;28;20301;-77
2022/09/14 09:23:51;;;;;;;1.50;1.10;;;18.10;99.90;;;;;;4223502;28;20632;-78
2022/09/14 09:25:57;;;;;;;2.30;1.30;;;18.20;99.90;;;;;;4213151;28;20235;-77
2022/09/14 09:28:09;;;;;;;1.87;1.10;;;18.20;99.90;;;;;;4213056;28;20214;-77
2022/09/14 09:30:14;;;;;;;1.67;1.30;;;18.20;99.90;;;;;;4219282;28;20219;-77
2022/09/14 09:32:19;;;;;;;1.83;1.20;;;18.20;99.90;;;;;;4223073;28;20242;-77
2022/09/14 09:34:26;;;;;;;1.53;1.13;;;18.20;99.90;;;;;;4220943;28;20556;-77
2022/09/14 09:36:33;;;;;;;1.97;1.20;;;18.20;99.90;;;;;;4216481;28;20284;-76
2022/09/14 09:38:36;;;;;;;1.53;1.17;;;18.20;99.90;;;;;;4223932;28;20210;-77
2022/09/14 09:40:43;;;;;;;2.00;0.90;;;18.20;99.90;;;;;;4222891;28;20314;-77
2022/09/14 09:43:08;;;;;;;1.20;1.00;;;18.20;99.90;;;;;;4222427;28;20206;-77
2022/09/14 09:45:10;;;;;;;1.77;0.90;;;18.30;99.90;;;;;;4222753;28;20231;-78
2022/09/14 09:47:12;;;;;;;1.90;1.20;;;18.30;99.90;;;;;;4226260;28;20227;-78
2022/09/14 09:49:21;;;;;;;1.30;0.93;;;18.30;99.90;;;;;;4225807;28;20214;-77
2022/09/14 09:51:28;;;;;;;1.23;0.90;;;18.30;99.90;;;;;;4223897;28;20279;-78
2022/09/14 09:53:33;;;;;;;1.47;0.90;;;18.30;99.90;;;;;;4223944;28;20687;-77
2022/09/14 09:55:39;;;;;;;1.97;0.83;;;18.30;99.90;;;;;;4221782;28;20242;-78
2022/09/14 09:57:41;;;;;;;1.23;0.80;;;18.30;99.90;;;;;;4222678;28;20199;-77
2022/09/14 09:59:45;;;;;;;1.73;0.80;;;18.30;99.90;;;;;;4221820;28;20295;-77
2022/09/14 10:01:47;;;;;;;3.07;0.90;;;18.30;99.90;;;;;;4221852;28;20208;-78
2022/09/14 10:04:05;;;;;;;0.97;0.77;;;18.40;99.90;;;;;;4221725;28;20220;-77
2022/09/14 10:06:09;;;;;;;0.73;0.70;;;18.40;99.90;;;;;;4221337;28;20216;-78
2022/09/14 10:08:17;;;;;;;0.70;0.70;;;18.40;99.90;;;;;;4222224;28;20225;-77
2022/09/14 10:10:24;;;;;;;1.57;0.80;;;18.40;99.90;;;;;;4205485;28;20734;-77
2022/09/14 10:12:29;;;;;;;1.53;1.00;;;18.50;99.90;;;;;;4221152;28;20211;-78
2022/09/14 10:14:33;;;;;;;1.27;0.70;;;18.50;99.90;;;;;;4200594;28;20655;-77
2022/09/14 10:16:39;;;;;;;0.93;0.70;;;18.50;99.90;;;;;;4221657;28;20239;-77
2022/09/14 10:18:46;;;;;;;1.67;0.83;;;18.50;99.90;;;;;;4221339;28;20241;-78
2022/09/14 10:21:09;;;;;;;1.33;0.70;;;18.50;99.90;;;;;;4221475;28;20643;-77
2022/09/14 10:23:23;;;;;;;1.50;0.83;;;18.60;99.90;;;;;;4229619;28;20664;-77
2022/09/14 10:25:26;;;;;;;2.27;0.77;;;18.50;99.90;;;;;;4218902;28;20208;-77
2022/09/14 10:27:40;;;;;;;1.50;0.80;;;18.60;99.90;;;;;;4200100;28;20277;-77
2022/09/14 10:29:43;;;;;;;0.50;0.50;;;18.60;99.90;;;;;;4234638;28;20198;-78
2022/09/14 10:31:46;;;;;;;2.40;0.90;;;18.60;99.90;;;;;;4223893;28;20212;-77
2022/09/14 10:33:51;;;;;;;2.23;0.80;;;18.60;99.90;;;;;;4217478;28;20215;-77
2022/09/14 10:36:02;;;;;;;1.50;0.90;;;18.60;99.90;;;;;;4202152;28;20638;-77
2022/09/14 10:38:15;;;;;;;1.03;0.60;;;18.60;99.90;;;;;;4219864;28;20239;-77
2022/09/14 10:40:22;;;;;;;2.60;0.83;;;18.70;99.90;;;;;;4217894;28;20306;-77
2022/09/14 10:42:33;;;;;;;1.13;0.70;;;18.70;99.90;;;;;;4198990;28;20211;-77
2022/09/14 10:44:48;;;;;;;2.37;0.70;;;18.70;99.90;;;;;;4219693;28;20286;-77
2022/09/14 10:47:01;;;;;;;1.00;0.80;;;18.60;99.90;;;;;;4218741;28;20207;-77
2022/09/14 10:49:23;;;;;;;0.53;0.53;;;18.70;99.90;;;;;;4218824;28;20247;-78
2022/09/14 10:51:38;;;;;;;1.80;0.77;;;18.70;99.90;;;;;;4197943;28;20689;-77